Dyer, Arkansas
Current Conditions -  °F | °C
As of 9:53 PM on Tuesday 25 Nov 2014 (Local Time) from KFSM Reporting Station
Clear Clear  
Wind Chill: 38°   Ceiling: Unl
Heat Index: 38°   Visibility: 10mi
Dew Point: 30°   Wind: 3mph
Humidity: 73%   Direction: 60°ENE
Pressure: 30.15"   Gusts: NA
Location:  35.49°N, 94.14°W
Report Text: KFSM 260353Z 06003KT 10SM CLR 03/M01 A3015 RMK AO2 SLP213 T00331011
Loading
Personal Weather Stations






























Interactive Weather Map New forecast layout! Learn more

10-Day Weather Forecast

Advertisements
Track Severe Weather on mobile